This is the latest recevied weather packets stored in our database for station/object VE6KEE-13. If no packets are shown the sender has not sent any weather packets the latest 10 day(s).
| Time | Temp. | Humidity | Pressure | Rain* | Wind** | Luminosity | Snow |
|---|---|---|---|---|---|---|---|
| 1777649452 | 20° C | 24% | 1017.8 hPa | 0 mm | - | - | - |
| 1777648551 | 18.33° C | 25% | 1017.7 hPa | 0 mm | - | - | - |
| 1777647650 | 17.22° C | 28% | 1017.7 hPa | 0 mm | - | - | - |
| 1777646762 | 15.56° C | 31% | 1018 hPa | 0 mm | - | - | - |
| 1777645857 | 13.33° C | 34% | 1018.2 hPa | 0 mm | - | - | - |
| 1777644948 | 11.11° C | 38% | 1018.3 hPa | 0 mm | - | - | - |
| 1777644046 | 8.89° C | 41% | 1018.5 hPa | 0 mm | - | - | - |
| 1777643146 | 7.78° C | 43% | 1018.5 hPa | 0 mm | - | - | - |
| 1777642246 | 6.67° C | 44% | 1018.5 hPa | 0 mm | - | - | - |
| 1777641345 | 5.56° C | 46% | 1018.4 hPa | 0 mm | - | - | - |
| 1777640450 | 5° C | 47% | 1018.6 hPa | 0 mm | - | - | - |
| 1777639550 | 5° C | 47% | 1018.5 hPa | 0 mm | - | - | - |
| 1777638645 | 5° C | 47% | 1018.6 hPa | 0 mm | - | - | - |
| 1777637742 | 5° C | 47% | 1018.5 hPa | 0 mm | - | - | - |
| 1777636844 | 5° C | 46% | 1018.7 hPa | 0 mm | - | - | - |
| 1777635949 | 5° C | 46% | 1018.6 hPa | 0 mm | - | - | - |
| 1777635044 | 5.56° C | 46% | 1018.7 hPa | 0 mm | - | - | - |
| 1777634139 | 5.56° C | 46% | 1018.8 hPa | 0 mm | - | - | - |
| 1777633238 | 5.56° C | 46% | 1018.8 hPa | 0 mm | - | - | - |
| 1777632338 | 5.56° C | 46% | 1018.8 hPa | 0 mm | - | - | - |
| 1777631437 | 6.11° C | 45% | 1018.8 hPa | 0 mm | - | - | - |
| 1777630536 | 6.11° C | 45% | 1018.8 hPa | 0 mm | - | - | - |
| 1777629643 | 6.11° C | 45% | 1018.9 hPa | 0 mm | - | - | - |
| 1777628734 | 6.11° C | 45% | 1018.9 hPa | 0 mm | - | - | - |
| 1777627833 | 6.11° C | 45% | 1018.9 hPa | 0 mm | - | - | - |
* Rain since midnight (hover to see other rain measurements)
** Current wind speed in m/s (hover to see current wind gust speed)